Time;durP1;ratioP1;P1;durP2;ratioP2;P2;SDS_P1;SDS_P2;PMS_P1;PMS_P2;Temp;Humidity;BMP_temperature;BMP_pressure;BME280_temperature;BME280_humidity;BME280_pressure;Samples;Min_cycle;Max_cycle;Signal;HPM_P1;HPM_P2
2023/10/14 00:00:27;;;;;;;6.75;0.60;;;;;;;13.41;100.00;99900.72;1230221;23;20024;-89
2023/10/14 00:00:58;;;;;;;0.47;0.47;;;;;;;13.43;100.00;99898.63;1237554;23;20027;-90
2023/10/14 00:01:36;;;;;;;1.58;0.40;;;;;;;13.29;100.00;99901.75;1236845;23;20728;-90
2023/10/14 00:02:24;;;;;;;0.20;0.20;;;;;;;13.27;100.00;99903.88;1243137;23;20252;-90
2023/10/14 00:03:05;;;;;;;0.30;0.30;;;;;;;13.28;100.00;99893.97;1249332;23;20109;-90
2023/10/14 00:03:41;;;;;;;;;;;;;;;13.34;100.00;99908.19;1250035;23;20256;-90
2023/10/14 00:04:12;;;;;;;1.92;0.65;;;;;;;13.44;100.00;99902.91;1247172;23;20069;-90
2023/10/14 00:04:44;;;;;;;3.83;0.32;;;;;;;13.33;100.00;99904.69;1243204;23;20256;-90
2023/10/14 00:05:17;;;;;;;3.83;1.00;;;;;;;13.32;100.00;99902.28;1249225;23;20396;-90
2023/10/14 00:05:51;;;;;;;4.38;0.30;;;;;;;13.30;100.00;99908.69;1235909;23;20548;-90
2023/10/14 00:06:24;;;;;;;1.20;0.32;;;;;;;13.33;100.00;99911.91;1232018;24;20674;-90
2023/10/14 00:06:57;;;;;;;1.27;0.20;;;;;;;13.37;100.00;99907.66;1235722;24;20324;-90
2023/10/14 00:07:29;;;;;;;1.85;0.50;;;;;;;13.41;100.00;99909.56;1237686;24;20017;-90
2023/10/14 00:08:01;;;;;;;1.60;0.43;;;;;;;13.44;100.00;99902.91;1247170;23;20267;-89
2023/10/14 00:08:34;;;;;;;6.80;0.60;;;;;;;13.42;100.00;99910.38;1255734;23;20046;-90
2023/10/14 00:09:12;;;;;;;1.38;0.38;;;;;;;13.30;100.00;99906.03;1244081;23;20070;-90
2023/10/14 00:09:44;;;;;;;0.40;0.20;;;;;;;13.27;100.00;99911.09;1243180;23;20776;-90
2023/10/14 00:10:16;;;;;;;2.67;0.30;;;;;;;13.29;100.00;99904.41;1239922;23;20257;-90
2023/10/14 00:10:47;;;;;;;0.40;0.30;;;;;;;13.13;100.00;99901.84;1238688;23;20261;-90
2023/10/14 00:11:19;;;;;;;4.10;0.40;;;;;;;13.13;100.00;99902.66;1239197;23;20465;-90
2023/10/14 00:11:56;;;;;;;0.22;0.22;;;;;;;13.24;100.00;99907.06;1243685;23;20437;-90
2023/10/14 00:12:28;;;;;;;1.58;0.40;;;;;;;13.16;100.00;99912.06;1239003;23;20030;-90
2023/10/14 00:13:02;;;;;;;0.70;0.30;;;;;;;13.05;100.00;99916.50;1245059;23;20257;-91
2023/10/14 00:13:41;;;;;;;2.08;0.22;;;;;;;13.13;100.00;99915.22;1248729;23;20251;-89
2023/10/14 00:14:16;;;;;;;2.30;0.63;;;;;;;13.15;100.00;99921.94;1244413;23;20449;-90
2023/10/14 00:14:53;;;;;;;0.73;0.25;;;;;;;13.15;100.00;99916.59;1247137;23;20019;-91
2023/10/14 00:15:30;;;;;;;3.83;0.32;;;;;;;13.18;100.00;99921.47;1235070;23;20017;-91
2023/10/14 00:16:07;;;;;;;2.42;0.40;;;;;;;13.19;100.00;99917.72;1240554;23;20437;-91
2023/10/14 00:16:41;;;;;;;0.17;0.17;;;;;;;13.20;100.00;99913.19;1237677;23;20030;-90
2023/10/14 00:17:18;;;;;;;2.92;0.40;;;;;;;13.28;100.00;99913.50;1235366;23;20281;-91
2023/10/14 00:17:50;;;;;;;9.75;0.50;;;;;;;13.36;100.00;99922.09;1238989;23;20020;-91
2023/10/14 00:18:24;;;;;;;0.60;0.17;;;;;;;13.37;100.00;99924.53;1241743;23;20276;-91
2023/10/14 00:18:57;;;;;;;1.00;0.30;;;;;;;13.29;100.00;99925.00;1241320;23;20265;-91
2023/10/14 00:19:29;;;;;;;1.27;0.30;;;;;;;13.29;100.00;99928.47;1243255;23;20600;-90
2023/10/14 00:20:01;;;;;;;0.88;0.45;;;;;;;13.32;100.00;99931.72;1244206;23;20016;-90
2023/10/14 00:20:35;;;;;;;2.25;0.40;;;;;;;13.39;100.00;99932.28;1249917;23;20256;-91
2023/10/14 00:21:10;;;;;;;0.75;0.30;;;;;;;13.44;100.00;99937.69;1248938;23;20252;-90
2023/10/14 00:21:42;;;;;;;1.40;0.47;;;;;;;13.46;100.00;99938.25;1237026;23;20264;-90
2023/10/14 00:22:14;;;;;;;0.98;0.40;;;;;;;13.40;100.00;99934.69;1233781;24;20385;-90
2023/10/14 00:22:46;;;;;;;2.97;0.40;;;;;;;13.38;100.00;99939.50;1235053;23;20269;-90
2023/10/14 00:23:17;;;;;;;5.68;0.30;;;;;;;13.32;100.00;99937.88;1240771;23;20323;-90
2023/10/14 00:23:57;;;;;;;1.30;0.40;;;;;;;13.23;100.00;99934.06;1237767;23;20027;-90
2023/10/14 00:24:28;;;;;;;0.88;0.85;;;;;;;13.27;100.00;99937.81;1237123;23;20838;-90
2023/10/14 00:25:00;;;;;;;1.88;0.30;;;;;;;13.24;100.00;99935.66;1244919;23;20340;-90
2023/10/14 00:25:34;;;;;;;1.83;0.47;;;;;;;13.30;100.00;99943.47;1237264;24;20257;-91
2023/10/14 00:26:20;;;;;;;0.68;0.20;;;;;;;13.25;100.00;99948.78;1239067;23;20560;-90
2023/10/14 00:26:57;;;;;;;5.97;0.35;;;;;;;13.29;100.00;99944.53;1229333;24;20269;-90
2023/10/14 00:27:29;;;;;;;6.90;0.80;;;;;;;13.29;100.00;99951.75;1241044;23;20028;-91
2023/10/14 00:28:13;;;;;;;1.27;0.30;;;;;;;13.29;100.00;99949.06;1229159;24;20301;-91
2023/10/14 00:28:45;;;;;;;1.25;0.55;;;;;;;13.27;100.00;99954.69;1235224;24;20269;-91
2023/10/14 00:29:50;;;;;;;0.63;0.30;;;;;;;13.20;100.00;99961.31;1235207;24;20069;-91
2023/10/14 00:30:26;;;;;;;1.73;0.40;;;;;;;13.22;100.00;99960.00;1243092;23;20271;-91
2023/10/14 00:30:58;;;;;;;0.75;0.20;;;;;;;13.23;100.00;99968.81;1231589;24;20599;-90
2023/10/14 00:31:30;;;;;;;0.43;0.25;;;;;;;13.16;100.00;99969.00;1231406;24;20350;-90
2023/10/14 00:32:03;;;;;;;1.08;0.43;;;;;;;13.24;100.00;99976.59;1238123;23;20301;-91
2023/10/14 00:32:35;;;;;;;1.50;0.40;;;;;;;13.23;100.00;99976.84;1240379;23;21097;-91
2023/10/14 00:33:08;;;;;;;2.45;0.28;;;;;;;13.21;100.00;99974.44;1236636;23;20272;-90
2023/10/14 00:33:40;;;;;;;2.85;0.65;;;;;;;13.25;100.00;99980.88;1237470;23;20272;-91
2023/10/14 00:34:15;;;;;;;0.30;0.30;;;;;;;13.19;100.00;99981.91;1235462;23;20285;-90
2023/10/14 00:34:46;;;;;;;0.85;0.40;;;;;;;13.23;100.00;99977.66;1245258;23;20297;-90
2023/10/14 00:35:19;;;;;;;2.92;0.40;;;;;;;13.22;100.00;99976.03;1248017;23;20286;-90
2023/10/14 00:35:55;;;;;;;0.30;0.20;;;;;;;13.15;100.00;99980.78;1248688;23;20355;-90
2023/10/14 00:36:31;;;;;;;2.05;0.68;;;;;;;13.24;100.00;99973.91;1240935;23;20274;-90
2023/10/14 00:37:02;;;;;;;0.40;0.25;;;;;;;13.21;100.00;99984.31;1237030;23;20628;-91
2023/10/14 00:37:35;;;;;;;2.10;0.32;;;;;;;13.23;100.00;99987.53;1239513;23;20284;-89
2023/10/14 00:38:13;;;;;;;0.82;0.20;;;;;;;13.24;100.00;99979.25;1241160;23;20339;-91
2023/10/14 00:38:45;;;;;;;2.88;0.77;;;;;;;13.16;100.00;99986.91;1230060;24;20339;-90
2023/10/14 00:39:17;;;;;;;3.75;0.57;;;;;;;13.14;100.00;99994.38;1247342;23;20271;-91
2023/10/14 00:40:00;;;;;;;1.15;0.32;;;;;;;13.19;100.00;99992.59;1240905;23;21378;-90
2023/10/14 00:40:33;;;;;;;0.73;0.73;;;;;;;13.13;100.00;99990.06;1243861;23;20082;-90
2023/10/14 00:41:08;;;;;;;0.93;0.40;;;;;;;13.12;100.00;99986.59;1243079;23;20263;-90
2023/10/14 00:41:42;;;;;;;2.67;0.40;;;;;;;13.27;100.00;99984.09;1244809;23;20366;-90
2023/10/14 00:42:13;;;;;;;1.60;0.32;;;;;;;13.22;100.00;99986.75;1236951;23;20272;-89
2023/10/14 00:42:46;;;;;;;3.20;0.88;;;;;;;13.28;100.00;99988.38;1243287;23;20256;-90
2023/10/14 00:43:20;;;;;;;1.42;0.75;;;;;;;13.35;100.00;99984.69;1238182;23;20260;-90
2023/10/14 00:43:52;;;;;;;0.60;0.30;;;;;;;13.34;100.00;99988.44;1244583;23;20325;-90
2023/10/14 00:44:25;;;;;;;5.95;0.47;;;;;;;13.39;100.00;99989.25;1242878;23;20260;-90
2023/10/14 00:44:56;;;;;;;0.30;0.25;;;;;;;13.40;100.00;99988.19;1242330;23;20355;-89
2023/10/14 00:45:28;;;;;;;1.17;0.30;;;;;;;13.35;100.00;99990.84;1249832;23;20255;-90
2023/10/14 00:46:04;;;;;;;2.88;0.47;;;;;;;13.37;100.00;99996.75;1247956;23;20282;-89
2023/10/14 00:46:42;;;;;;;0.90;0.25;;;;;;;13.41;100.00;99997.03;1248825;23;20331;-90
2023/10/14 00:47:15;;;;;;;1.40;0.20;;;;;;;13.39;100.00;99993.81;1246047;23;20275;-90
2023/10/14 00:47:48;;;;;;;0.38;0.30;;;;;;;13.38;100.00;99994.88;1246646;23;20275;-90
2023/10/14 00:48:27;;;;;;;0.30;0.30;;;;;;;13.37;100.00;99993.25;1246891;23;20347;-90
2023/10/14 00:49:04;;;;;;;1.50;0.57;;;;;;;13.36;100.00;100005.03;1248712;23;20338;-89
2023/10/14 00:49:42;;;;;;;10.00;0.68;;;;;;;13.39;100.00;100004.50;1248636;23;20019;-90
2023/10/14 00:50:36;;;;;;;1.25;0.40;;;;;;;13.36;100.00;100007.69;1247281;23;20323;-90
2023/10/14 00:51:10;;;;;;;4.28;0.60;;;;;;;13.37;100.00;100001.28;1247474;23;20275;-89
2023/10/14 00:51:42;;;;;;;1.52;0.63;;;;;;;13.45;100.00;99990.13;1248873;23;20773;-90
2023/10/14 00:52:18;;;;;;;2.45;0.40;;;;;;;13.48;100.00;100000.31;1235260;23;20272;-90
2023/10/14 00:52:55;;;;;;;1.33;0.22;;;;;;;13.39;100.00;99991.94;1235106;24;20268;-90
2023/10/14 00:53:28;;;;;;;0.28;0.20;;;;;;;13.33;100.00;99992.16;1237084;24;20618;-90
2023/10/14 00:54:04;;;;;;;0.38;0.17;;;;;;;13.31;100.00;99992.41;1248139;23;20324;-89
2023/10/14 00:55:24;;;;;;;3.35;0.47;;;;;;;13.36;100.00;99997.00;1238232;24;20260;-90
2023/10/14 00:55:57;;;;;;;1.38;0.30;;;;;;;13.42;100.00;99998.66;1248647;23;20256;-89
2023/10/14 00:56:29;;;;;;;2.60;0.50;;;;;;;13.40;100.00;100003.44;1241007;23;20272;-90
2023/10/14 00:57:20;;;;;;;3.03;0.50;;;;;;;13.37;100.00;100007.44;1241036;23;20339;-89
2023/10/14 00:57:54;;;;;;;2.35;0.70;;;;;;;13.30;100.00;100005.00;1239745;23;20276;-90
2023/10/14 00:58:29;;;;;;;1.92;0.40;;;;;;;13.33;100.00;100000.19;1234992;23;20017;-90
2023/10/14 00:59:04;;;;;;;0.35;0.20;;;;;;;13.34;100.00;100007.16;1243120;23;20275;-90
2023/10/14 00:59:37;;;;;;;1.75;0.50;;;;;;;13.34;100.00;100004.47;1231535;24;20718;-90
2023/10/14 01:00:11;;;;;;;0.85;0.40;;;;;;;13.31;100.00;100005.78;1234734;24;20342;-89
2023/10/14 01:00:58;;;;;;;1.75;0.40;;;;;;;13.32;100.00;100017.28;1230693;24;20265;-90
2023/10/14 01:01:50;;;;;;;0.77;0.30;;;;;;;13.28;100.00;100012.47;1240530;23;20303;-89
2023/10/14 01:02:33;;;;;;;7.40;0.47;;;;;;;13.24;100.00;100010.56;1247103;23;20733;-90
2023/10/14 01:03:10;;;;;;;2.45;0.75;;;;;;;13.25;100.00;100007.63;1234866;24;20279;-90
2023/10/14 01:03:42;;;;;;;3.30;0.50;;;;;;;13.23;100.00;100008.94;1240829;23;20317;-90
2023/10/14 01:04:20;;;;;;;0.60;0.60;;;;;;;13.27;100.00;100010.84;1234954;24;20345;-90
2023/10/14 01:04:53;;;;;;;1.50;0.45;;;;;;;13.23;100.00;100015.09;1240675;23;20312;-89
2023/10/14 01:05:25;;;;;;;1.35;0.40;;;;;;;13.21;100.00;100011.06;1237178;24;20024;-89
2023/10/14 01:05:57;;;;;;;0.82;0.30;;;;;;;13.23;100.00;100007.06;1239133;23;20339;-90
2023/10/14 01:06:39;;;;;;;1.48;0.30;;;;;;;13.26;100.00;100011.09;1231333;23;20289;-90
2023/10/14 01:07:15;;;;;;;4.72;0.43;;;;;;;13.28;100.00;100004.44;1241032;23;20260;-90
2023/10/14 01:07:47;;;;;;;1.67;0.50;;;;;;;13.22;100.00;100000.09;1229314;24;20301;-90
2023/10/14 01:08:22;;;;;;;5.15;0.57;;;;;;;13.30;100.00;99996.97;1235037;23;20356;-90
2023/10/14 01:08:53;;;;;;;0.30;0.30;;;;;;;13.30;100.00;99994.28;1190233;23;1127791;-90
2023/10/14 01:10:12;;;;;;;0.65;0.40;;;;;;;13.28;100.00;100001.75;1241980;23;20713;-90
2023/10/14 01:10:24;;;;;;;0.70;0.22;;;;;;;13.25;100.00;100002.28;1219575;24;20835;-90
2023/10/14 01:10:58;;;;;;;1.15;0.20;;;;;;;13.24;100.00;100007.88;1240946;23;20275;-89
2023/10/14 01:11:35;;;;;;;0.40;0.40;;;;;;;13.25;100.00;100015.66;1249514;23;20326;-90
2023/10/14 01:12:18;;;;;;;0.20;0.20;;;;;;;13.18;100.00;100012.38;1243014;23;20256;-89
2023/10/14 01:12:54;;;;;;;4.18;0.70;;;;;;;13.15;100.00;100028.91;1239387;23;20288;-90
2023/10/14 01:13:27;;;;;;;0.50;0.47;;;;;;;13.18;100.00;100033.78;1236792;24;20268;-90
2023/10/14 01:14:05;;;;;;;2.15;0.52;;;;;;;13.23;100.00;100041.03;1231592;24;20257;-89
2023/10/14 01:14:40;;;;;;;2.75;0.40;;;;;;;13.08;100.00;100033.63;1240349;23;20601;-90
2023/10/14 01:15:17;;;;;;;2.08;0.73;;;;;;;12.99;100.00;100032.47;1244005;23;20737;-91
2023/10/14 01:16:00;;;;;;;4.28;0.40;;;;;;;13.16;100.00;100035.84;1241196;23;20315;-90
2023/10/14 01:16:34;;;;;;;1.65;0.50;;;;;;;13.17;100.00;100036.66;1246558;23;20275;-90
2023/10/14 01:17:06;;;;;;;4.78;0.40;;;;;;;13.18;100.00;100039.13;1254356;23;20267;-90
2023/10/14 01:17:38;;;;;;;1.27;0.43;;;;;;;13.12;100.00;100040.06;1256372;23;20321;-90
2023/10/14 01:18:14;;;;;;;5.03;0.55;;;;;;;13.11;100.00;100040.31;1235328;23;20304;-90
2023/10/14 01:18:47;;;;;;;5.80;0.88;;;;;;;13.06;100.00;100041.09;1235056;24;20328;-90
2023/10/14 01:19:22;;;;;;;1.65;0.40;;;;;;;13.10;100.00;100044.88;1246991;23;20263;-90
2023/10/14 01:19:55;;;;;;;2.63;0.75;;;;;;;13.10;100.00;100055.56;1241074;23;20275;-89
2023/10/14 01:20:36;;;;;;;3.70;0.63;;;;;;;13.07;100.00;100052.59;1233360;24;20258;-90
2023/10/14 01:21:08;;;;;;;5.05;0.63;;;;;;;13.05;100.00;100050.16;1235295;24;20336;-90
2023/10/14 01:21:41;;;;;;;5.07;0.50;;;;;;;13.04;100.00;100056.56;1235277;24;20738;-90
2023/10/14 01:22:13;;;;;;;1.45;0.50;;;;;;;13.06;100.00;100051.78;1232722;24;20288;-90
2023/10/14 01:22:51;;;;;;;3.10;0.32;;;;;;;13.09;100.00;100061.97;1236350;24;20381;-90
2023/10/14 01:23:26;;;;;;;4.75;0.80;;;;;;;13.16;100.00;100064.47;1233835;24;20333;-89
2023/10/14 01:24:00;;;;;;;0.98;0.63;;;;;;;13.16;100.00;100056.44;1237503;24;20253;-90
2023/10/14 01:24:38;;;;;;;4.22;0.73;;;;;;;13.07;100.00;100055.25;1248267;23;20271;-89
2023/10/14 01:25:14;;;;;;;0.90;0.45;;;;;;;13.08;100.00;100057.69;1243806;23;20252;-90
2023/10/14 01:25:51;;;;;;;0.57;0.50;;;;;;;13.10;100.00;100060.91;1254847;23;20616;-89
2023/10/14 01:26:25;;;;;;;2.90;0.40;;;;;;;13.10;100.00;100063.59;1247205;23;20279;-90
2023/10/14 01:27:05;;;;;;;2.58;0.57;;;;;;;13.02;100.00;100071.25;1235373;24;20273;-91
2023/10/14 01:27:37;;;;;;;1.55;0.45;;;;;;;13.00;100.00;100068.84;1246857;23;20271;-90
2023/10/14 01:28:12;;;;;;;1.27;0.40;;;;;;;13.06;100.00;100083.06;1246955;23;20106;-90
2023/10/14 01:28:52;;;;;;;4.60;0.60;;;;;;;13.05;100.00;100079.56;1245112;23;20748;-90
2023/10/14 01:29:30;;;;;;;4.53;0.68;;;;;;;13.07;100.00;100080.13;1231729;24;20319;-90
2023/10/14 01:30:10;;;;;;;7.78;0.60;;;;;;;13.04;100.00;100077.16;1241199;23;20383;-90
2023/10/14 01:30:52;;;;;;;2.30;0.35;;;;;;;13.07;100.00;100080.13;1254177;23;20339;-90
2023/10/14 01:33:12;;;;;;;2.88;0.57;;;;;;;13.08;100.00;100086.28;1250494;23;20263;-90
2023/10/14 01:33:44;;;;;;;2.33;0.50;;;;;;;12.99;100.00;100088.59;1244531;23;20260;-90
2023/10/14 01:34:22;;;;;;;9.07;0.60;;;;;;;13.05;100.00;100087.59;1244616;23;20252;-90
2023/10/14 01:35:00;;;;;;;3.78;0.93;;;;;;;13.01;100.00;100091.84;1241849;23;20400;-90
2023/10/14 01:35:34;;;;;;;1.05;0.40;;;;;;;12.94;100.00;100091.22;1237743;24;20273;-90
2023/10/14 01:36:08;;;;;;;3.53;0.52;;;;;;;12.95;100.00;100092.84;1233721;24;20764;-89
2023/10/14 01:36:41;;;;;;;4.60;0.57;;;;;;;12.90;100.00;100090.13;1221403;24;21628;-90
2023/10/14 01:37:18;;;;;;;7.25;0.63;;;;;;;12.92;100.00;100093.34;1240681;23;20758;-90
2023/10/14 01:37:51;;;;;;;1.17;0.30;;;;;;;12.89;100.00;100100.00;1236010;24;20824;-90
2023/10/14 01:38:24;;;;;;;1.85;0.45;;;;;;;12.91;100.00;100097.06;1234269;24;20383;-89
2023/10/14 01:38:59;;;;;;;2.90;0.55;;;;;;;12.85;100.00;100098.06;1233239;24;20461;-90
2023/10/14 01:39:30;;;;;;;2.63;0.57;;;;;;;12.79;100.00;100101.72;1244757;23;20724;-90
2023/10/14 01:40:24;;;;;;;5.53;1.08;;;;;;;12.84;100.00;100101.78;1251176;23;20255;-90
2023/10/14 01:40:56;;;;;;;1.85;0.70;;;;;;;12.82;100.00;100104.69;1235562;23;20271;-90
2023/10/14 01:41:30;;;;;;;4.70;0.70;;;;;;;12.82;100.00;100104.69;1231622;24;20379;-90
2023/10/14 01:42:01;;;;;;;0.90;0.30;;;;;;;12.84;100.00;100107.13;1243256;23;20252;-90
2023/10/14 01:42:33;;;;;;;0.90;0.40;;;;;;;12.83;100.00;100103.66;1241542;23;21007;-90
2023/10/14 01:43:05;;;;;;;0.93;0.60;;;;;;;12.71;100.00;100113.66;1243097;23;20276;-90
2023/10/14 01:43:39;;;;;;;11.65;0.73;;;;;;;12.80;100.00;100114.03;1242106;23;20272;-90
2023/10/14 01:44:11;;;;;;;6.13;0.80;;;;;;;12.79;100.00;100110.53;1237634;24;20268;-90
2023/10/14 01:44:43;;;;;;;1.15;0.52;;;;;;;12.78;100.00;100116.16;1227478;24;20290;-90
2023/10/14 01:45:24;;;;;;;5.25;0.55;;;;;;;12.74;100.00;100117.69;1238106;23;20268;-90
2023/10/14 01:46:27;;;;;;;2.25;0.57;;;;;;;12.84;100.00;100113.28;1251495;23;20347;-90
2023/10/14 01:47:01;;;;;;;0.82;0.30;;;;;;;12.83;100.00;100116.19;1231401;24;20768;-90
2023/10/14 01:47:41;;;;;;;1.80;0.50;;;;;;;12.84;100.00;100117.81;1243915;23;20264;-91
2023/10/14 01:48:13;;;;;;;5.13;0.50;;;;;;;12.82;100.00;100117.25;1229682;24;20607;-90
2023/10/14 01:48:51;;;;;;;1.48;0.50;;;;;;;12.76;100.00;100115.59;1229824;24;20062;-91
2023/10/14 01:49:27;;;;;;;4.70;0.70;;;;;;;12.79;100.00;100117.75;1237667;24;20272;-91
2023/10/14 01:50:00;;;;;;;7.32;1.35;;;;;;;12.83;100.00;100121.53;1245642;23;20329;-90
2023/10/14 01:50:32;;;;;;;3.85;0.73;;;;;;;12.86;100.00;100126.41;1249268;23;20327;-90
2023/10/14 01:51:04;;;;;;;1.92;0.45;;;;;;;12.85;100.00;100122.91;1248857;23;20268;-90
2023/10/14 01:51:36;;;;;;;1.42;1.33;;;;;;;12.89;100.00;100125.91;1251781;23;20303;-90
2023/10/14 01:52:14;;;;;;;2.97;0.98;;;;;;;12.73;100.00;100126.78;1239277;24;20344;-90
2023/10/14 01:52:46;;;;;;;1.15;0.82;;;;;;;12.78;100.00;100127.63;1242051;23;20276;-90
2023/10/14 01:53:18;;;;;;;7.68;2.70;;;;;;;12.80;100.00;100130.06;1255052;23;20329;-90
2023/10/14 01:53:51;;;;;;;1.75;0.63;;;;;;;12.82;100.00;100126.09;1238194;23;20273;-90
2023/10/14 01:54:23;;;;;;;1.80;0.80;;;;;;;12.78;100.00;100134.84;1232954;24;20281;-90
2023/10/14 01:54:55;;;;;;;3.47;1.27;;;;;;;12.78;100.00;100130.31;1231018;24;20266;-90
2023/10/14 01:55:27;;;;;;;2.47;0.60;;;;;;;12.75;100.00;100124.66;1237293;23;20333;-90
2023/10/14 01:56:00;;;;;;;2.70;1.10;;;;;;;12.75;100.00;100135.34;1236925;24;20789;-90
2023/10/14 01:56:32;;;;;;;4.00;0.47;;;;;;;12.72;100.00;100133.16;1237115;24;20277;-89
2023/10/14 01:57:05;;;;;;;1.95;0.65;;;;;;;12.61;100.00;100133.03;1238040;24;20277;-90
2023/10/14 01:57:37;;;;;;;7.03;0.88;;;;;;;12.72;100.00;100130.50;1237789;23;20810;-90
2023/10/14 01:58:22;;;;;;;2.90;0.60;;;;;;;12.68;100.00;100131.00;1238464;24;20412;-89
2023/10/14 01:58:57;;;;;;;3.30;0.70;;;;;;;12.72;100.00;100136.66;1242328;23;20772;-90
2023/10/14 01:59:29;;;;;;;4.90;0.60;;;;;;;12.75;100.00;100127.34;1243039;23;20264;-90
2023/10/14 02:00:24;;;;;;;3.83;0.50;;;;;;;12.74;100.00;100139.88;1237355;24;20382;-90
2023/10/14 02:00:59;;;;;;;2.17;0.85;;;;;;;12.73;100.00;100142.81;1248437;23;20267;-91
2023/10/14 02:01:34;;;;;;;2.40;0.90;;;;;;;12.72;100.00;100136.66;1243416;23;20288;-90
2023/10/14 02:02:09;;;;;;;3.28;0.40;;;;;;;12.73;100.00;100143.63;1239195;24;20289;-90
2023/10/14 02:02:48;;;;;;;4.75;0.85;;;;;;;12.76;100.00;100137.78;1242417;23;20268;-91
2023/10/14 02:03:20;;;;;;;1.10;0.95;;;;;;;12.63;100.00;100152.31;1236423;23;20265;-90
2023/10/14 02:03:54;;;;;;;2.10;0.60;;;;;;;12.66;100.00;100154.50;1239996;24;20886;-90
2023/10/14 02:04:27;;;;;;;6.00;0.73;;;;;;;12.64;100.00;100151.25;1246177;23;20343;-90
2023/10/14 02:04:59;;;;;;;1.67;0.43;;;;;;;12.59;100.00;100161.84;1236241;24;20276;-90
2023/10/14 02:05:39;;;;;;;2.42;0.60;;;;;;;12.63;100.00;100160.31;1238242;24;20723;-90
2023/10/14 02:06:16;;;;;;;2.55;0.60;;;;;;;12.69;100.00;100159.34;1231622;24;20270;-90
2023/10/14 02:07:18;;;;;;;6.10;0.98;;;;;;;12.62;100.00;100164.06;1243411;23;20275;-90
2023/10/14 02:07:40;;;;;;;1.40;0.68;;;;;;;12.55;100.00;100167.94;1236310;24;20388;-90
2023/10/14 02:08:15;;;;;;;3.78;1.55;;;;;;;12.60;100.00;100171.50;1243700;23;20267;-90
2023/10/14 02:08:51;;;;;;;6.32;0.85;;;;;;;12.63;100.00;100168.34;1243572;23;20780;-90
2023/10/14 02:09:29;;;;;;;5.28;0.52;;;;;;;12.63;100.00;100163.00;1249525;23;20323;-90
2023/10/14 02:10:03;;;;;;;4.47;0.85;;;;;;;12.45;100.00;100168.59;1249060;23;20260;-90
2023/10/14 02:10:35;;;;;;;1.85;0.75;;;;;;;12.53;100.00;100167.38;1236902;24;20273;-90
2023/10/14 02:11:07;;;;;;;16.02;1.88;;;;;;;12.52;100.00;100163.88;1235635;23;20272;-89
2023/10/14 02:11:39;;;;;;;4.75;1.27;;;;;;;12.54;100.00;100179.66;1242988;23;20279;-90
2023/10/14 02:12:13;;;;;;;3.00;0.80;;;;;;;12.58;100.00;100173.59;1242264;23;20276;-90
2023/10/14 02:12:45;;;;;;;8.65;0.70;;;;;;;12.64;100.00;100179.84;1237707;24;20261;-90
2023/10/14 02:13:21;;;;;;;6.40;0.73;;;;;;;12.55;100.00;100182.09;1230899;24;20318;-90
2023/10/14 02:13:52;;;;;;;7.97;0.80;;;;;;;12.45;100.00;100183.81;1234316;24;20348;-90
2023/10/14 02:14:24;;;;;;;2.75;0.52;;;;;;;12.44;100.00;100177.66;1239646;23;20337;-90
2023/10/14 02:14:59;;;;;;;2.60;0.70;;;;;;;12.44;100.00;100180.34;1244648;23;20300;-90
2023/10/14 02:15:31;;;;;;;1.10;0.65;;;;;;;12.48;100.00;100184.13;1235214;23;20629;-91
2023/10/14 02:16:07;;;;;;;5.88;1.77;;;;;;;12.57;100.00;100182.66;1240896;23;20847;-91
2023/10/14 02:16:43;;;;;;;1.40;0.57;;;;;;;12.48;100.00;100186.00;1244184;23;20268;-90
2023/10/14 02:17:16;;;;;;;1.90;0.65;;;;;;;12.50;100.00;100187.38;1248405;23;20295;-91
2023/10/14 02:17:48;;;;;;;3.92;0.70;;;;;;;12.49;100.00;100188.44;1236906;23;20757;-90
2023/10/14 02:18:21;;;;;;;7.72;1.00;;;;;;;12.49;100.00;100188.44;1242130;23;20280;-90
2023/10/14 02:19:17;;;;;;;4.63;0.90;;;;;;;12.51;100.00;100186.31;1236537;23;20725;-90
2023/10/14 02:19:50;;;;;;;3.05;0.70;;;;;;;12.40;100.00;100197.91;1238947;24;20304;-90
2023/10/14 02:20:28;;;;;;;7.88;1.00;;;;;;;12.43;100.00;100189.41;1243870;23;20343;-91
2023/10/14 02:21:06;;;;;;;3.38;0.90;;;;;;;12.47;100.00;100189.72;1245861;23;20256;-90
2023/10/14 02:21:42;;;;;;;6.68;3.03;;;;;;;12.43;100.00;100194.75;1236343;24;20280;-91
2023/10/14 02:22:13;;;;;;;5.90;0.90;;;;;;;12.44;100.00;100192.88;1231192;24;20265;-90
2023/10/14 02:22:49;;;;;;;1.45;0.88;;;;;;;12.44;100.00;100195.56;1240660;24;20260;-90
2023/10/14 02:23:21;;;;;;;1.88;0.90;;;;;;;12.40;100.00;100192.56;1242161;23;20272;-91
2023/10/14 02:23:53;;;;;;;7.47;0.95;;;;;;;12.42;100.00;100200.34;1247260;23;20271;-90
2023/10/14 02:24:25;;;;;;;5.20;0.73;;;;;;;12.41;100.00;100202.19;1244745;23;20534;-91
2023/10/14 02:24:57;;;;;;;1.35;0.65;;;;;;;12.41;100.00;100201.38;1240204;23;20571;-90
2023/10/14 02:25:30;;;;;;;2.15;0.98;;;;;;;12.43;100.00;100202.75;1238452;23;20294;-90
2023/10/14 02:26:08;;;;;;;4.20;1.48;;;;;;;12.39;100.00;100201.63;1225034;24;20663;-90
2023/10/14 02:26:39;;;;;;;5.80;1.58;;;;;;;12.43;100.00;100201.97;1231181;24;20266;-90
2023/10/14 02:27:14;;;;;;;4.63;0.70;;;;;;;12.45;100.00;100216.69;1235482;23;20746;-90
2023/10/14 02:27:45;;;;;;;7.13;0.80;;;;;;;12.43;100.00;100208.09;1230805;23;20277;-89
2023/10/14 02:28:17;;;;;;;3.75;1.30;;;;;;;12.39;100.00;100212.31;1243757;23;20309;-90
2023/10/14 02:28:52;;;;;;;3.20;0.60;;;;;;;12.39;100.00;100206.97;1241016;23;20275;-90
2023/10/14 02:29:24;;;;;;;3.63;0.70;;;;;;;12.40;100.00;100213.13;1236742;23;20277;-91
2023/10/14 02:29:56;;;;;;;4.82;1.00;;;;;;;12.42;100.00;100217.19;1237055;24;20272;-89
2023/10/14 02:30:30;;;;;;;7.40;0.75;;;;;;;12.43;100.00;100215.31;1237170;24;21059;-90
2023/10/14 02:31:03;;;;;;;2.38;0.63;;;;;;;12.37;100.00;100211.75;1248673;23;20272;-90
2023/10/14 02:31:38;;;;;;;7.22;1.08;;;;;;;12.32;100.00;100211.66;1243822;23;20260;-89
2023/10/14 02:32:13;;;;;;;0.82;0.40;;;;;;;12.39;100.00;100217.66;1249712;23;20276;-90
2023/10/14 02:32:44;;;;;;;6.90;1.05;;;;;;;12.40;100.00;100218.47;1238614;23;20265;-90
2023/10/14 02:33:17;;;;;;;2.83;0.98;;;;;;;12.39;100.00;100217.66;1245800;23;20299;-90
2023/10/14 02:33:48;;;;;;;2.58;0.50;;;;;;;12.41;100.00;100217.41;1243950;23;20596;-90
2023/10/14 02:34:20;;;;;;;6.40;1.30;;;;;;;12.37;100.00;100225.13;1242806;23;20280;-90
2023/10/14 02:34:52;;;;;;;6.50;1.00;;;;;;;12.37;100.00;100217.09;1237060;24;20281;-90
2023/10/14 02:35:24;;;;;;;5.45;0.93;;;;;;;12.34;100.00;100225.59;1243580;23;20272;-90
2023/10/14 02:35:59;;;;;;;7.15;1.63;;;;;;;12.32;100.00;100227.69;1244944;23;20774;-90
2023/10/14 02:36:35;;;;;;;2.90;0.43;;;;;;;12.36;100.00;100228.84;1236286;23;20598;-90
2023/10/14 02:37:07;;;;;;;3.55;0.75;;;;;;;12.33;100.00;100230.13;1237607;24;20268;-90
2023/10/14 02:37:39;;;;;;;7.05;0.90;;;;;;;12.38;100.00;100240.09;1244375;23;20268;-89
2023/10/14 02:38:10;;;;;;;2.72;0.55;;;;;;;12.25;100.00;100235.84;1248622;23;20612;-90
2023/10/14 02:38:52;;;;;;;3.38;0.60;;;;;;;12.26;100.00;100236.66;1244571;23;20256;-90
2023/10/14 02:39:28;;;;;;;8.80;0.70;;;;;;;12.25;100.00;100238.53;1241821;23;20550;-90
2023/10/14 02:39:59;;;;;;;6.05;1.13;;;;;;;12.27;100.00;100241.75;1237548;23;20331;-90
2023/10/14 02:40:36;;;;;;;3.20;0.85;;;;;;;12.20;100.00;100241.13;1234270;24;20262;-90
2023/10/14 02:41:08;;;;;;;4.32;0.80;;;;;;;12.22;100.00;100246.22;1238335;23;20272;-88
2023/10/14 02:41:43;;;;;;;6.85;2.03;;;;;;;12.23;100.00;100245.97;1237413;23;20269;-89
2023/10/14 02:42:18;;;;;;;1.65;0.52;;;;;;;12.21;100.00;100245.41;1237284;24;20360;-90
2023/10/14 02:42:57;;;;;;;3.53;1.02;;;;;;;12.19;100.00;100244.03;1249524;23;20305;-89
2023/10/14 02:43:29;;;;;;;3.15;1.02;;;;;;;12.20;100.00;100251.78;1251274;23;20263;-90
2023/10/14 02:44:46;;;;;;;12.25;1.38;;;;;;;12.25;100.00;100253.72;1235192;23;20279;-89
2023/10/14 02:45:19;;;;;;;7.20;1.40;;;;;;;12.17;100.00;100252.28;1237025;24;20276;-90
2023/10/14 02:45:51;;;;;;;1.90;0.60;;;;;;;12.11;100.00;100257.78;1242899;23;20260;-90